Time;durP1;ratioP1;P1;durP2;ratioP2;P2;SDS_P1;SDS_P2;PMS_P1;PMS_P2;Temp;Humidity;BMP_temperature;BMP_pressure;BME280_temperature;BME280_humidity;BME280_pressure;Samples;Min_cycle;Max_cycle;Signal;HPM_P1;HPM_P2
2024/02/18 00:00:36;;;;;;;33.00;7.50;;;;;;;-2.06;84.21;100373.36;79621;1296;3048199;-73
2024/02/18 00:03:03;;;;;;;32.60;5.90;;;;;;;-2.14;84.55;100369.89;80516;1296;3013314;-73
2024/02/18 00:05:33;;;;;;;32.10;6.20;;;;;;;-1.85;83.98;100367.27;79993;1295;3011372;-73
2024/02/18 00:08:01;;;;;;;36.80;7.20;;;;;;;-1.33;81.61;100361.96;78857;1294;3051519;-74
2024/02/18 00:10:30;;;;;;;43.90;6.70;;;;;;;-1.20;81.07;100360.77;79891;1292;3013029;-74
2024/02/18 00:12:56;;;;;;;23.90;5.90;;;;;;;-1.20;80.49;100358.55;79734;1291;3013013;-74
2024/02/18 00:15:24;;;;;;;48.10;6.70;;;;;;;-1.20;80.10;100356.84;78417;1291;3049031;-74
2024/02/18 00:17:51;;;;;;;41.70;7.50;;;;;;;-1.47;80.90;100351.78;79795;1292;3012991;-71
2024/02/18 00:20:17;;;;;;;35.00;6.90;;;;;;;-1.71;82.03;100350.34;79848;1291;3011539;-74
2024/02/18 00:22:45;;;;;;;44.30;8.00;;;;;;;-1.77;82.57;100349.11;78598;1297;3026309;-71
2024/02/18 00:25:12;;;;;;;33.80;5.90;;;;;;;-1.65;82.13;100352.41;79633;1295;3012970;-74
2024/02/18 00:27:39;;;;;;;42.60;6.60;;;;;;;-1.85;82.64;100351.83;79748;1291;3011725;-73
2024/02/18 00:30:07;;;;;;;32.40;5.80;;;;;;;-1.97;83.38;100353.15;78442;1297;3026274;-74
2024/02/18 00:32:34;;;;;;;39.80;6.90;;;;;;;-2.05;83.58;100350.52;79762;1291;3012761;-70
2024/02/18 00:35:00;;;;;;;28.30;5.60;;;;;;;-2.17;84.16;100349.95;79778;1292;3011555;-76
2024/02/18 00:37:28;;;;;;;37.10;5.40;;;;;;;-2.29;84.89;100350.23;78627;1291;3027582;-73
2024/02/18 00:39:55;;;;;;;27.20;5.70;;;;;;;-1.92;84.38;100345.44;79873;1291;3013957;-73
2024/02/18 00:42:21;;;;;;;34.00;5.50;;;;;;;-1.53;82.53;100341.29;79727;1291;3013700;-75
2024/02/18 00:44:49;;;;;;;37.40;6.10;;;;;;;-1.32;81.58;100340.83;78551;1292;3025722;-73
2024/02/18 00:47:16;;;;;;;50.80;5.90;;;;;;;-1.48;81.46;100339.58;79766;1292;3014105;-72
2024/02/18 00:49:42;;;;;;;31.80;5.40;;;;;;;-1.55;81.59;100340.09;79714;1292;3011675;-73
2024/02/18 00:52:10;;;;;;;38.00;6.50;;;;;;;-1.67;81.81;100337.80;78573;1296;3027961;-71
2024/02/18 00:54:38;;;;;;;34.90;5.70;;;;;;;-1.80;82.36;100339.14;79851;1294;3013019;-73
2024/02/18 00:57:05;;;;;;;30.70;5.30;;;;;;;-1.83;82.63;100331.40;79774;1291;3011919;-71
2024/02/18 00:59:33;;;;;;;36.50;6.60;;;;;;;-1.83;82.76;100328.31;78550;1291;3048765;-73
2024/02/18 01:02:00;;;;;;;33.80;5.70;;;;;;;-1.87;82.74;100328.63;79784;1294;3013377;-73
2024/02/18 01:04:27;;;;;;;38.10;6.90;;;;;;;-1.98;83.01;100327.03;79815;1297;3011694;-73
2024/02/18 01:06:55;;;;;;;32.40;6.10;;;;;;;-1.99;83.04;100326.17;78535;1297;3051467;-73
2024/02/18 01:09:22;;;;;;;29.20;6.50;;;;;;;-2.12;83.80;100329.04;79748;1291;3013888;-71
2024/02/18 01:11:50;;;;;;;33.70;8.40;;;;;;;-2.28;84.71;100333.93;79596;1291;3011557;-72
2024/02/18 01:14:18;;;;;;;25.90;6.10;;;;;;;-1.89;84.23;100328.95;78860;1292;3050681;-73
2024/02/18 01:16:45;;;;;;;30.60;6.00;;;;;;;-1.51;82.42;100333.73;79512;1296;3013433;-74
2024/02/18 01:19:12;;;;;;;38.10;6.50;;;;;;;-1.38;81.10;100332.90;79662;1296;3012697;-75
2024/02/18 01:21:39;;;;;;;37.90;6.60;;;;;;;-1.58;81.65;100334.56;78614;1291;3025669;-76
2024/02/18 01:24:07;;;;;;;41.60;6.00;;;;;;;-1.70;81.97;100333.17;79852;1296;3012812;-74
2024/02/18 01:26:34;;;;;;;59.70;6.90;;;;;;;-1.90;82.71;100340.46;79857;1291;3011556;-74
2024/02/18 01:29:02;;;;;;;34.50;6.80;;;;;;;-1.97;83.58;100336.15;78472;1295;3026890;-77
2024/02/18 01:31:28;;;;;;;40.60;6.90;;;;;;;-1.93;83.04;100328.77;80984;1293;3013259;-74
2024/02/18 01:33:55;;;;;;;37.60;7.40;;;;;;;-2.10;83.72;100332.31;81970;1293;3011296;-75
2024/02/18 01:36:23;;;;;;;38.70;6.40;;;;;;;-2.31;84.38;100329.27;79816;1294;3025891;-76
2024/02/18 01:38:49;;;;;;;44.20;6.30;;;;;;;-2.27;85.04;100333.42;79815;1294;3014969;-76
2024/02/18 01:41:16;;;;;;;36.70;6.60;;;;;;;-2.44;85.40;100333.83;80309;1293;3011615;-75
2024/02/18 01:43:44;;;;;;;24.00;4.30;;;;;;;-2.55;85.97;100330.33;79367;1293;3027561;-72
2024/02/18 01:46:10;;;;;;;36.90;5.90;;;;;;;-2.13;85.09;100325.59;80467;1297;3012913;-71
2024/02/18 01:48:37;;;;;;;34.40;5.10;;;;;;;-1.64;82.67;100318.57;79557;1294;3012763;-74
2024/02/18 01:51:06;;;;;;;42.70;5.30;;;;;;;-1.39;81.78;100317.09;78537;1297;3025956;-75
2024/02/18 01:53:32;;;;;;;17.70;4.20;;;;;;;-1.42;81.02;100318.45;79807;1296;3012733;-74
2024/02/18 01:55:59;;;;;;;37.40;5.90;;;;;;;-1.62;81.54;100317.03;79563;1293;3012959;-74
2024/02/18 01:58:27;;;;;;;35.20;5.40;;;;;;;-1.73;81.80;100314.60;78245;1294;3050357;-74
2024/02/18 02:00:53;;;;;;;35.00;5.70;;;;;;;-1.77;82.03;100314.58;79497;1298;3013288;-75
2024/02/18 02:03:20;;;;;;;47.60;6.40;;;;;;;-2.09;82.64;100313.59;79516;1298;3011804;-75
2024/02/18 02:05:48;;;;;;;34.70;6.00;;;;;;;-2.30;84.28;100311.44;78259;1299;3028210;-73
2024/02/18 02:08:15;;;;;;;41.70;6.60;;;;;;;-2.32;84.51;100313.48;79513;1294;3013297;-72
2024/02/18 02:10:41;;;;;;;33.10;5.80;;;;;;;-2.58;85.68;100312.82;79478;1298;3011923;-74
2024/02/18 02:13:09;;;;;;;33.10;6.20;;;;;;;-2.63;86.58;100314.49;78277;1299;3027212;-71
2024/02/18 02:15:36;;;;;;;28.20;4.60;;;;;;;-2.62;86.77;100317.42;79709;1294;3012603;-72
2024/02/18 02:18:03;;;;;;;38.50;6.00;;;;;;;-2.07;85.58;100309.99;79588;1294;3013551;-71
2024/02/18 02:20:31;;;;;;;26.10;4.30;;;;;;;-1.42;83.14;100311.41;78585;1296;3026532;-72
2024/02/18 02:22:57;;;;;;;35.20;5.30;;;;;;;-1.48;82.15;100310.71;79904;1294;3013726;-73
2024/02/18 02:25:24;;;;;;;54.50;7.70;;;;;;;-1.43;81.76;100307.11;80302;1297;3012831;-71
2024/02/18 02:28:15;;;;;;;22.50;6.10;;;;;;;-1.62;82.01;100304.66;78849;1294;3026573;-74
2024/02/18 02:30:43;;;;;;;35.80;6.00;;;;;;;-1.91;82.92;100307.33;78609;1294;3052656;-71
2024/02/18 02:33:10;;;;;;;32.40;6.70;;;;;;;-2.10;83.75;100306.05;79848;1294;3020851;-69
2024/02/18 02:35:37;;;;;;;37.90;6.10;;;;;;;-2.21;84.47;100299.46;80002;1297;3011699;-73
2024/02/18 02:38:05;;;;;;;43.70;6.80;;;;;;;-2.31;85.09;100301.30;78774;1293;3027499;-72
2024/02/18 02:40:31;;;;;;;28.60;8.10;;;;;;;-2.34;85.59;100301.80;80251;1293;3019343;-72
2024/02/18 02:42:58;;;;;;;39.10;6.90;;;;;;;-2.31;85.49;100305.42;79711;1295;3011854;-74
2024/02/18 02:45:27;;;;;;;48.60;6.10;;;;;;;-2.32;85.70;100306.95;78396;1297;3027592;-74
2024/02/18 02:47:53;;;;;;;22.80;4.70;;;;;;;-2.40;86.38;100306.57;79516;1298;3019139;-71
2024/02/18 02:50:20;;;;;;;41.70;6.30;;;;;;;-1.87;85.13;100301.84;79646;1296;3011664;-75
2024/02/18 02:52:48;;;;;;;35.80;6.20;;;;;;;-1.30;82.73;100303.17;78481;1293;3028168;-72
2024/02/18 02:55:16;;;;;;;41.70;7.00;;;;;;;-1.28;81.54;100298.38;79936;1292;3013265;-73
2024/02/18 02:57:43;;;;;;;35.90;6.90;;;;;;;-1.48;81.86;100304.35;80076;1292;3011612;-74
2024/02/18 03:00:11;;;;;;;31.50;6.80;;;;;;;-1.56;82.33;100305.55;78344;1294;3053163;-71
2024/02/18 03:02:38;;;;;;;45.60;7.60;;;;;;;-1.98;83.14;100309.85;79639;1297;3013050;-73
2024/02/18 03:05:05;;;;;;;48.60;8.90;;;;;;;-2.06;84.31;100310.52;79609;1297;3011619;-73
2024/02/18 03:07:33;;;;;;;71.30;10.00;;;;;;;-2.40;85.22;100312.58;78490;1297;3068933;-75
2024/02/18 03:10:00;;;;;;;36.80;8.40;;;;;;;-2.39;86.57;100310.35;79470;1294;3013101;-73
2024/02/18 03:12:27;;;;;;;49.90;8.80;;;;;;;-2.60;87.11;100316.73;79592;1292;3011682;-74
2024/02/18 03:14:56;;;;;;;36.00;8.00;;;;;;;-2.70;87.84;100320.61;78442;1294;3025605;-74
2024/02/18 03:17:23;;;;;;;32.50;7.40;;;;;;;-2.42;88.03;100317.20;79729;1297;3012833;-72
2024/02/18 03:19:49;;;;;;;39.00;8.00;;;;;;;-2.06;86.40;100319.45;79704;1296;3012208;-75
2024/02/18 03:22:20;;;;;;;47.00;8.50;;;;;;;-2.03;85.39;100320.15;78460;1297;3067794;-73
2024/02/18 03:24:50;;;;;;;33.90;7.00;;;;;;;-2.12;85.98;100315.13;79776;1293;3011836;-73
2024/02/18 03:27:18;;;;;;;40.30;7.60;;;;;;;-2.11;85.60;100310.15;78524;1293;3056419;-73
2024/02/18 03:29:45;;;;;;;43.10;9.70;;;;;;;-2.26;86.19;100307.16;79674;1293;3013710;-73
2024/02/18 03:32:13;;;;;;;42.10;8.20;;;;;;;-2.45;87.00;100306.20;79602;1294;3011728;-74
2024/02/18 03:34:41;;;;;;;31.00;7.70;;;;;;;-2.56;87.40;100300.30;78536;1297;3053238;-74
2024/02/18 03:37:08;;;;;;;45.80;9.30;;;;;;;-2.64;88.15;100298.88;79753;1297;3013725;-72
2024/02/18 03:39:35;;;;;;;41.10;8.10;;;;;;;-2.73;88.77;100300.00;79680;1294;3012140;-74
2024/02/18 03:42:06;;;;;;;21.60;6.00;;;;;;;-2.82;89.56;100309.39;78394;1292;3055975;-75
2024/02/18 03:44:33;;;;;;;28.30;5.60;;;;;;;-2.15;88.90;100319.23;79857;1293;3011951;-74
2024/02/18 03:47:00;;;;;;;26.40;6.60;;;;;;;-1.50;86.26;100320.84;79745;1294;3011971;-74
2024/02/18 03:49:30;;;;;;;40.30;6.70;;;;;;;-1.68;85.11;100309.97;78431;1299;3051769;-73
2024/02/18 03:51:56;;;;;;;43.10;6.90;;;;;;;-1.81;85.87;100309.92;79634;1294;3013572;-76
2024/02/18 03:54:26;;;;;;;36.60;7.10;;;;;;;-1.95;86.44;100309.36;79121;1293;3011093;-74
2024/02/18 03:56:53;;;;;;;53.10;8.00;;;;;;;-2.23;87.32;100311.30;79747;1296;3013224;-74
2024/02/18 03:59:20;;;;;;;38.40;7.70;;;;;;;-2.40;88.47;100307.27;79611;1293;3013133;-75
2024/02/18 04:01:50;;;;;;;56.40;8.30;;;;;;;-2.35;89.08;100300.77;78615;1297;3053344;-73
2024/02/18 04:04:17;;;;;;;43.00;8.30;;;;;;;-2.46;89.52;100301.91;79782;1293;3013045;-76
2024/02/18 04:06:44;;;;;;;30.40;6.20;;;;;;;-2.50;89.90;100306.01;79814;1293;3011847;-75
2024/02/18 04:09:12;;;;;;;45.40;6.90;;;;;;;-2.09;89.51;100310.34;78265;1294;3068997;-74
2024/02/18 04:11:39;;;;;;;47.10;8.80;;;;;;;-1.70;88.30;100309.11;79612;1295;3012906;-72
2024/02/18 04:14:05;;;;;;;40.50;7.70;;;;;;;-1.52;87.18;100308.98;79647;1296;3012947;-72
2024/02/18 04:16:33;;;;;;;23.00;6.60;;;;;;;-1.39;86.48;100302.82;78391;1296;3028367;-74
2024/02/18 04:19:00;;;;;;;39.60;8.20;;;;;;;-1.53;86.40;100309.33;79690;1296;3013360;-72
2024/02/18 04:21:26;;;;;;;37.80;8.30;;;;;;;-1.98;87.62;100313.30;79681;1297;3012885;-72
2024/02/18 04:23:54;;;;;;;52.40;8.30;;;;;;;-2.24;89.33;100315.08;78419;1296;3028260;-72
2024/02/18 04:26:22;;;;;;;44.90;8.10;;;;;;;-2.24;89.89;100318.33;79519;1294;3012899;-72
2024/02/18 04:28:49;;;;;;;32.10;8.00;;;;;;;-2.10;90.15;100326.14;80165;1293;3011574;-75
2024/02/18 04:31:17;;;;;;;38.00;6.20;;;;;;;-2.29;90.40;100324.14;78838;1291;3054315;-75
2024/02/18 04:33:43;;;;;;;30.30;7.50;;;;;;;-2.10;90.38;100314.63;79898;1297;3013345;-74
2024/02/18 04:36:11;;;;;;;28.00;6.90;;;;;;;-2.16;90.18;100314.08;79710;1297;3012980;-75
2024/02/18 04:38:39;;;;;;;31.40;6.40;;;;;;;-2.26;90.63;100319.70;78506;1291;3068912;-70
2024/02/18 04:41:06;;;;;;;32.80;6.30;;;;;;;-2.17;90.50;100314.59;79754;1291;3012994;-75
2024/02/18 04:43:33;;;;;;;28.80;6.60;;;;;;;-2.41;91.08;100314.30;79662;1296;3013754;-72
2024/02/18 04:46:01;;;;;;;25.30;6.10;;;;;;;-2.48;91.88;100305.84;78442;1294;3027189;-71
2024/02/18 04:48:28;;;;;;;33.40;6.10;;;;;;;-2.46;92.31;100309.98;79672;1296;3012931;-70
2024/02/18 04:50:55;;;;;;;26.70;6.90;;;;;;;-2.36;92.09;100316.21;79631;1296;3011790;-73
2024/02/18 04:53:23;;;;;;;37.20;8.30;;;;;;;-2.51;92.37;100325.56;78934;1297;3026379;-75
2024/02/18 04:55:50;;;;;;;34.90;5.40;;;;;;;-2.13;92.36;100330.73;79688;1294;3013383;-71
2024/02/18 04:58:16;;;;;;;28.70;5.90;;;;;;;-1.56;90.15;100324.10;79646;1293;3011669;-71
2024/02/18 05:00:44;;;;;;;36.10;6.20;;;;;;;-1.38;88.56;100326.54;78537;1293;3026358;-75
2024/02/18 05:03:10;;;;;;;36.80;7.20;;;;;;;-1.46;88.05;100321.37;79709;1294;3013489;-71
2024/02/18 05:05:38;;;;;;;40.50;8.30;;;;;;;-1.47;88.36;100315.70;79659;1297;3011443;-75
2024/02/18 05:08:05;;;;;;;34.70;7.10;;;;;;;-1.75;88.52;100315.10;78418;1295;3026515;-76
2024/02/18 05:10:33;;;;;;;30.90;7.50;;;;;;;-2.00;89.57;100316.05;79670;1292;3012897;-74
2024/02/18 05:12:59;;;;;;;36.00;8.30;;;;;;;-2.01;90.07;100318.10;79641;1293;3013660;-73
2024/02/18 05:15:27;;;;;;;34.00;6.70;;;;;;;-2.28;90.93;100324.83;78448;1294;3026224;-73
2024/02/18 05:17:53;;;;;;;41.60;7.60;;;;;;;-2.31;91.98;100321.90;79708;1297;3018496;-75
2024/02/18 05:20:20;;;;;;;28.60;6.10;;;;;;;-2.01;91.29;100323.92;79712;1297;3011707;-72
2024/02/18 05:22:48;;;;;;;33.10;6.00;;;;;;;-1.44;89.30;100320.51;78536;1297;3028124;-73
2024/02/18 05:25:14;;;;;;;24.40;7.50;;;;;;;-1.44;88.08;100327.56;79696;1297;3013020;-74
2024/02/18 05:27:41;;;;;;;32.50;6.40;;;;;;;-1.43;87.84;100328.41;79681;1293;3012784;-74
2024/02/18 05:30:09;;;;;;;37.70;7.90;;;;;;;-1.82;88.68;100327.96;78393;1296;3026534;-73
2024/02/18 05:32:36;;;;;;;38.50;7.10;;;;;;;-2.05;89.53;100326.31;79672;1297;3013363;-76
2024/02/18 05:35:02;;;;;;;24.10;6.00;;;;;;;-2.32;91.22;100326.36;79643;1296;3011530;-77
2024/02/18 05:37:31;;;;;;;31.30;7.10;;;;;;;-2.22;91.49;100324.35;78438;1296;3027608;-75
2024/02/18 05:39:57;;;;;;;24.90;6.90;;;;;;;-2.29;91.90;100314.19;79698;1297;3013775;-72
2024/02/18 05:42:24;;;;;;;30.80;6.10;;;;;;;-2.44;92.71;100316.49;79718;1291;3011601;-76
2024/02/18 05:44:51;;;;;;;30.70;5.20;;;;;;;-2.07;92.92;100315.65;78585;1292;3026132;-75
2024/02/18 05:47:19;;;;;;;22.40;5.30;;;;;;;-1.47;90.50;100313.11;79918;1296;3013064;-76
2024/02/18 05:49:46;;;;;;;29.60;6.70;;;;;;;-1.38;89.11;100323.95;79820;1297;3011812;-75
2024/02/18 05:52:14;;;;;;;31.10;6.10;;;;;;;-1.70;89.89;100317.52;78556;1292;3068244;-78
2024/02/18 05:54:41;;;;;;;25.80;6.40;;;;;;;-1.65;90.22;100322.52;79805;1292;3013497;-77
2024/02/18 05:57:09;;;;;;;33.90;7.90;;;;;;;-1.78;90.08;100325.05;79652;1291;3011738;-76
2024/02/18 05:59:37;;;;;;;20.00;6.90;;;;;;;-2.01;91.28;100324.45;78557;1292;3054936;-78
2024/02/18 06:02:04;;;;;;;37.10;7.50;;;;;;;-2.13;92.21;100328.52;80575;1299;3013402;-76
2024/02/18 06:04:31;;;;;;;14.80;4.60;;;;;;;-2.07;92.41;100323.89;79804;1297;3013366;-77
2024/02/18 06:06:59;;;;;;;24.50;5.50;;;;;;;-1.45;90.67;100322.56;78425;1291;3067783;-76
2024/02/18 06:09:25;;;;;;;22.00;5.70;;;;;;;-1.36;88.81;100321.73;79611;1296;3013529;-74
2024/02/18 06:11:52;;;;;;;16.60;5.60;;;;;;;-1.68;88.88;100317.86;79728;1291;3011677;-74
2024/02/18 06:14:20;;;;;;;19.80;6.60;;;;;;;-1.54;89.51;100312.23;78476;1292;3026803;-75
2024/02/18 06:16:47;;;;;;;29.60;7.20;;;;;;;-1.76;89.51;100305.64;79821;1297;3013462;-76
2024/02/18 06:19:14;;;;;;;22.60;7.40;;;;;;;-1.80;90.30;100307.35;79738;1296;3011669;-76
2024/02/18 06:21:43;;;;;;;19.10;7.20;;;;;;;-1.99;90.61;100313.47;78415;1297;3068118;-73
2024/02/18 06:24:11;;;;;;;22.30;7.60;;;;;;;-2.03;91.14;100311.73;79793;1291;3011744;-78
2024/02/18 06:26:40;;;;;;;21.30;5.40;;;;;;;-2.13;91.86;100308.09;79164;1292;3012786;-75
2024/02/18 06:29:07;;;;;;;19.50;6.90;;;;;;;-1.93;91.79;100306.63;79771;1296;3013629;-74
2024/02/18 06:31:33;;;;;;;22.90;6.90;;;;;;;-1.35;90.52;100297.15;79800;1291;3011970;-72
2024/02/18 06:34:01;;;;;;;28.50;7.30;;;;;;;-1.26;88.95;100300.42;78594;1296;3027566;-71
2024/02/18 06:36:28;;;;;;;13.30;6.30;;;;;;;-1.73;89.62;100302.23;79779;1296;3013075;-75
2024/02/18 06:38:55;;;;;;;17.70;6.90;;;;;;;-1.62;90.43;100307.24;79873;1293;3011364;-72
2024/02/18 06:41:22;;;;;;;17.60;6.80;;;;;;;-1.57;89.94;100309.83;78543;1292;3026359;-76
2024/02/18 06:43:49;;;;;;;21.00;6.10;;;;;;;-1.70;89.66;100314.77;79790;1292;3013022;-76
2024/02/18 06:46:16;;;;;;;20.50;8.10;;;;;;;-1.80;90.16;100315.59;79741;1291;3011968;-76
2024/02/18 06:48:44;;;;;;;16.40;6.80;;;;;;;-1.93;91.27;100310.05;78539;1297;3052077;-76
2024/02/18 06:51:12;;;;;;;20.90;6.30;;;;;;;-2.05;91.94;100315.16;79849;1297;3013224;-78
2024/02/18 06:53:39;;;;;;;21.70;5.80;;;;;;;-1.51;91.78;100316.52;79820;1297;3011522;-78
2024/02/18 06:56:07;;;;;;;21.70;7.40;;;;;;;-1.03;89.48;100310.42;78445;1291;3055116;-76
2024/02/18 06:58:33;;;;;;;24.20;6.20;;;;;;;-1.27;88.41;100318.98;79744;1291;3013414;-75
2024/02/18 07:01:00;;;;;;;23.80;7.50;;;;;;;-1.54;89.41;100321.86;79789;1297;3013570;-77
2024/02/18 07:03:28;;;;;;;14.80;5.70;;;;;;;-1.67;90.52;100328.36;78525;1291;3027078;-76
2024/02/18 07:05:54;;;;;;;18.70;7.40;;;;;;;-1.76;90.53;100327.30;79778;1291;3013486;-78
2024/02/18 07:08:21;;;;;;;21.20;7.10;;;;;;;-1.98;91.48;100321.71;79788;1294;3011607;-77
2024/02/18 07:10:49;;;;;;;31.00;9.00;;;;;;;-1.95;92.13;100322.92;78505;1292;3026654;-76
2024/02/18 07:13:17;;;;;;;10.30;5.90;;;;;;;-2.01;92.83;100322.55;79795;1292;3012873;-70
2024/02/18 07:15:43;;;;;;;23.40;7.70;;;;;;;-1.35;92.13;100321.91;79789;1292;3011663;-71
2024/02/18 07:18:11;;;;;;;33.00;7.30;;;;;;;-0.96;89.80;100323.66;78700;1297;3051562;-77
2024/02/18 07:20:38;;;;;;;28.80;7.80;;;;;;;-0.84;88.35;100322.29;79597;1298;3013451;-76
2024/02/18 07:23:04;;;;;;;20.60;7.70;;;;;;;-1.15;88.35;100318.65;79788;1297;3011977;-75
2024/02/18 07:25:33;;;;;;;25.60;8.00;;;;;;;-1.30;89.44;100314.35;78662;1296;3026755;-74
2024/02/18 07:28:00;;;;;;;23.40;8.10;;;;;;;-1.34;89.76;100313.99;79796;1296;3015019;-69
2024/02/18 07:30:27;;;;;;;16.40;7.50;;;;;;;-1.64;90.25;100308.95;79837;1291;3012310;-76
2024/02/18 07:32:55;;;;;;;19.10;7.30;;;;;;;-1.74;90.73;100305.31;78657;1298;3051591;-71
2024/02/18 07:35:23;;;;;;;21.50;8.40;;;;;;;-1.85;91.29;100304.59;80835;1295;3013054;-71
2024/02/18 07:37:49;;;;;;;24.20;7.90;;;;;;;-1.98;91.93;100309.70;79849;1297;3011258;-72
2024/02/18 07:40:17;;;;;;;15.50;7.30;;;;;;;-1.34;91.45;100302.81;78596;1297;3058027;-74
2024/02/18 07:42:44;;;;;;;25.10;7.30;;;;;;;-0.65;88.21;100295.08;79738;1291;3013141;-78
2024/02/18 07:45:12;;;;;;;30.50;9.50;;;;;;;-0.90;87.41;100296.83;79624;1297;3011455;-73
2024/02/18 07:47:40;;;;;;;19.80;8.90;;;;;;;-1.20;88.82;100288.75;78677;1297;3051895;-73
2024/02/18 07:50:10;;;;;;;27.50;10.80;;;;;;;-1.35;89.36;100289.07;79828;1297;3013187;-73
2024/02/18 07:52:39;;;;;;;24.60;10.20;;;;;;;-1.49;90.67;100291.79;79324;1297;3011344;-78
2024/02/18 07:55:06;;;;;;;30.60;12.40;;;;;;;-1.50;90.63;100291.80;79785;1291;3019123;-78
2024/02/18 07:57:32;;;;;;;36.50;12.50;;;;;;;-1.60;91.01;100291.43;79822;1292;3011810;-78
2024/02/18 08:00:00;;;;;;;40.30;9.70;;;;;;;-1.55;91.34;100285.45;78502;1297;3026673;-77
2024/02/18 08:02:27;;;;;;;24.00;8.90;;;;;;;-1.11;90.37;100285.66;79814;1298;3013736;-76
2024/02/18 08:04:54;;;;;;;27.70;10.20;;;;;;;-0.72;87.87;100282.02;79682;1296;3011767;-75
2024/02/18 08:07:24;;;;;;;23.30;9.10;;;;;;;-0.87;87.80;100279.63;78263;1294;3027323;-73
2024/02/18 08:09:51;;;;;;;22.70;8.20;;;;;;;-0.87;88.62;100288.06;79729;1294;3012402;-70
2024/02/18 08:12:20;;;;;;;25.70;9.60;;;;;;;-0.97;88.56;100289.61;79177;1292;3011706;-79
2024/02/18 08:14:47;;;;;;;20.30;7.90;;;;;;;-1.19;88.59;100300.95;79730;1297;3013304;-73
2024/02/18 08:17:13;;;;;;;23.10;9.10;;;;;;;-1.53;89.55;100297.30;79687;1297;3013153;-73
2024/02/18 08:19:41;;;;;;;28.90;10.60;;;;;;;-1.66;90.35;100296.75;78463;1297;3027941;-72
2024/02/18 08:22:08;;;;;;;36.40;11.10;;;;;;;-1.48;91.30;100292.33;79870;1297;3019378;-70
2024/02/18 08:24:34;;;;;;;27.90;9.60;;;;;;;-1.40;91.31;100291.98;79807;1297;3011822;-75
2024/02/18 08:27:02;;;;;;;28.80;9.00;;;;;;;-1.22;91.05;100291.30;78539;1292;3027510;-69
2024/02/18 08:29:29;;;;;;;37.60;12.20;;;;;;;-0.98;90.20;100286.33;79710;1292;3018735;-75
2024/02/18 08:31:59;;;;;;;32.40;10.70;;;;;;;-0.91;89.25;100287.02;79719;1297;3011795;-68
2024/02/18 08:34:28;;;;;;;25.50;11.60;;;;;;;-1.12;89.34;100286.86;78574;1295;3052810;-75
2024/02/18 08:36:56;;;;;;;28.40;10.30;;;;;;;-1.18;90.32;100289.08;79749;1297;3012669;-77
2024/02/18 08:39:23;;;;;;;26.10;11.40;;;;;;;-1.06;89.60;100300.27;79818;1291;3012864;-76
2024/02/18 08:41:50;;;;;;;32.20;11.40;;;;;;;-0.99;89.46;100302.84;78575;1291;3056356;-77
2024/02/18 08:44:17;;;;;;;23.90;9.60;;;;;;;-1.09;89.61;100308.17;79858;1291;3013635;-76
2024/02/18 08:46:47;;;;;;;30.90;11.20;;;;;;;-1.50;90.67;100304.86;79769;1296;3011535;-75
2024/02/18 08:49:15;;;;;;;22.40;8.70;;;;;;;-1.57;91.93;100299.86;78595;1297;3051532;-78
2024/02/18 08:51:43;;;;;;;35.10;10.30;;;;;;;-1.31;91.78;100290.63;79699;1299;3012871;-72
2024/02/18 08:54:09;;;;;;;21.60;8.70;;;;;;;-0.91;90.13;100284.27;79692;1295;3011719;-75
2024/02/18 08:56:37;;;;;;;36.00;10.90;;;;;;;-0.71;88.48;100287.36;78662;1291;3055662;-74
2024/02/18 08:59:04;;;;;;;31.90;10.70;;;;;;;-0.56;88.19;100277.69;79588;1298;3013641;-71
2024/02/18 09:01:30;;;;;;;30.40;11.70;;;;;;;-1.04;88.67;100275.33;79789;1292;3011684;-78
2024/02/18 09:04:01;;;;;;;27.70;11.00;;;;;;;-1.13;89.94;100282.22;78613;1297;3026738;-68
2024/02/18 09:06:28;;;;;;;31.60;12.50;;;;;;;-1.16;90.42;100281.88;79883;1299;3013664;-73
2024/02/18 09:08:57;;;;;;;42.70;14.40;;;;;;;-1.24;90.77;100290.46;79751;1293;3011818;-74
2024/02/18 09:11:23;;;;;;;28.00;11.80;;;;;;;-1.18;90.93;100289.94;79914;1295;3013577;-77
2024/02/18 09:13:50;;;;;;;35.30;9.60;;;;;;;-1.31;90.90;100288.75;79708;1292;3013627;-69
2024/02/18 09:16:18;;;;;;;22.60;10.20;;;;;;;-0.87;90.70;100288.23;78601;1292;3026973;-78
2024/02/18 09:18:46;;;;;;;37.60;11.30;;;;;;;-0.38;88.46;100280.92;79645;1295;3013620;-79
2024/02/18 09:21:12;;;;;;;27.20;10.90;;;;;;;-0.56;87.46;100281.98;79740;1296;3011888;-79
2024/02/18 09:23:40;;;;;;;20.20;9.40;;;;;;;-0.77;88.25;100286.67;78415;1297;3068865;-76
2024/02/18 09:26:10;;;;;;;21.70;10.90;;;;;;;-1.04;89.20;100284.28;79628;1297;3012985;-77
2024/02/18 09:28:39;;;;;;;36.70;12.50;;;;;;;-0.85;89.52;100275.66;79060;1291;3011565;-75
2024/02/18 09:31:08;;;;;;;25.50;10.80;;;;;;;-1.12;89.86;100285.64;79781;1294;3018691;-75
2024/02/18 09:33:35;;;;;;;26.70;10.70;;;;;;;-1.29;91.17;100281.35;79844;1297;3011377;-75
2024/02/18 09:36:04;;;;;;;36.90;13.20;;;;;;;-1.36;91.32;100287.19;78448;1297;3052728;-73
2024/02/18 09:38:31;;;;;;;31.60;10.30;;;;;;;-1.51;92.23;100279.42;79719;1297;3013836;-77
2024/02/18 09:40:57;;;;;;;28.20;9.80;;;;;;;-1.03;92.01;100272.73;79693;1296;3011721;-74
2024/02/18 09:43:26;;;;;;;30.20;9.10;;;;;;;-0.33;89.19;100276.41;78553;1296;3057218;-74
2024/02/18 09:45:54;;;;;;;17.90;8.10;;;;;;;-0.24;87.34;100278.64;79743;1298;3012735;-70
2024/02/18 09:48:21;;;;;;;29.60;10.60;;;;;;;-0.54;87.03;100276.65;79597;1296;3011755;-74
2024/02/18 09:50:49;;;;;;;23.50;11.40;;;;;;;-0.63;87.69;100271.34;78611;1298;3051545;-71
2024/02/18 09:53:16;;;;;;;26.70;11.50;;;;;;;-0.66;88.02;100266.69;79830;1297;3013324;-75
2024/02/18 09:55:46;;;;;;;22.50;8.50;;;;;;;-0.87;88.54;100270.69;79746;1292;3011893;-75
2024/02/18 09:58:14;;;;;;;31.80;10.30;;;;;;;-0.99;88.62;100261.41;78585;1291;3057031;-81
2024/02/18 10:00:41;;;;;;;33.60;9.80;;;;;;;-1.11;89.28;100268.80;79871;1293;3013874;-72
2024/02/18 10:03:08;;;;;;;22.70;8.00;;;;;;;-1.15;89.96;100265.02;79645;1297;3013531;-76
2024/02/18 10:05:37;;;;;;;20.80;7.90;;;;;;;-0.70;89.36;100264.63;78541;1297;3051819;-76
2024/02/18 10:08:04;;;;;;;15.20;7.80;;;;;;;-0.23;87.10;100266.75;79679;1306;3012862;-72
2024/02/18 10:10:34;;;;;;;25.00;10.30;;;;;;;-0.31;86.21;100261.79;79704;1297;3011919;-73
2024/02/18 10:13:04;;;;;;;16.50;7.90;;;;;;;-0.40;86.57;100263.01;78464;1294;3056582;-71
2024/02/18 10:15:32;;;;;;;23.10;8.60;;;;;;;-0.57;86.91;100256.87;80026;1292;3012994;-81
2024/02/18 10:18:02;;;;;;;22.70;9.20;;;;;;;-0.46;86.95;100256.14;79302;1296;3011819;-78
2024/02/18 10:20:31;;;;;;;23.90;9.60;;;;;;;-0.71;87.53;100251.05;79912;1297;3013412;-75
2024/02/18 10:23:00;;;;;;;15.50;7.30;;;;;;;-0.87;88.37;100251.75;78448;1297;3052481;-74
2024/02/18 10:25:27;;;;;;;21.80;7.90;;;;;;;-1.19;89.46;100257.11;79603;1297;3013559;-74
2024/02/18 10:28:02;;;;;;;18.00;6.90;;;;;;;-1.29;90.42;100259.85;79898;1291;3011816;-73
2024/02/18 10:30:31;;;;;;;16.00;5.90;;;;;;;-0.88;90.34;100263.27;78591;1292;3049657;-75
2024/02/18 10:32:59;;;;;;;24.70;8.30;;;;;;;-0.52;88.37;100261.33;79756;1297;3013509;-73
2024/02/18 10:35:26;;;;;;;22.40;8.00;;;;;;;-0.48;88.14;100253.75;79846;1293;3011670;-74
2024/02/18 10:37:55;;;;;;;22.60;9.30;;;;;;;-0.30;87.66;100252.66;78789;1303;3052324;-72
2024/02/18 10:40:31;;;;;;;18.80;7.60;;;;;;;-0.46;87.99;100254.59;80350;1295;3011492;-72
2024/02/18 10:43:01;;;;;;;15.60;8.30;;;;;;;-0.61;87.63;100253.09;78536;1298;3052652;-66
2024/02/18 10:45:28;;;;;;;22.70;9.20;;;;;;;-0.80;89.09;100247.96;79637;1297;3013293;-75
2024/02/18 10:47:56;;;;;;;17.40;7.70;;;;;;;-0.79;89.53;100247.11;79681;1293;3011382;-66
2024/02/18 10:50:27;;;;;;;24.90;9.20;;;;;;;-0.98;90.34;100252.11;78733;1291;3049360;-77
2024/02/18 10:52:57;;;;;;;17.00;6.40;;;;;;;-0.93;90.39;100251.24;79865;1297;3011534;-77
2024/02/18 10:55:30;;;;;;;20.10;6.70;;;;;;;-0.43;89.58;100244.78;78635;1305;3052444;-77
2024/02/18 10:58:03;;;;;;;18.10;7.60;;;;;;;0.07;87.64;100245.60;79825;1297;3012804;-77
2024/02/18 11:00:32;;;;;;;15.70;6.80;;;;;;;0.24;85.81;100243.96;78670;1297;3051910;-76